createdAt,value
2019-02-10T00:00:52.769Z,5.78
2019-02-10T00:03:20.726Z,5.67
2019-02-10T00:05:48.678Z,5.63
2019-02-10T00:08:16.300Z,5.60
2019-02-10T00:10:43.918Z,5.65
2019-02-10T00:13:11.873Z,5.73
2019-02-10T00:15:39.490Z,5.56
2019-02-10T00:18:07.402Z,5.52
2019-02-10T00:20:35.269Z,5.47
2019-02-10T00:23:02.882Z,5.37
2019-02-10T00:25:30.500Z,5.57
2019-02-10T00:27:58.359Z,5.42
2019-02-10T00:30:25.966Z,5.35
2019-02-10T00:32:53.570Z,5.24
2019-02-10T00:35:21.549Z,5.35
2019-02-10T00:37:49.416Z,5.30
2019-02-10T00:40:17.406Z,5.17
2019-02-10T00:42:45.357Z,5.03
2019-02-10T00:45:13.324Z,5.33
2019-02-10T00:47:41.194Z,5.23
2019-02-10T00:50:09.063Z,5.23
2019-02-10T00:52:36.672Z,5.17
2019-02-10T00:55:04.290Z,5.07
2019-02-10T00:57:32.255Z,5.28
2019-02-10T01:00:00.222Z,5.43
2019-02-10T01:02:28.207Z,5.45
2019-02-10T01:04:56.162Z,5.42
2019-02-10T01:07:24.133Z,5.45
2019-02-10T01:09:51.751Z,5.61
2019-02-10T01:12:19.658Z,5.83
2019-02-10T01:14:47.292Z,5.76
2019-02-10T01:17:15.206Z,5.76
2019-02-10T01:19:43.058Z,5.87
2019-02-10T01:22:10.659Z,5.86
2019-02-10T01:24:38.589Z,5.81
2019-02-10T01:27:06.863Z,5.70
2019-02-10T01:29:34.836Z,5.93
2019-02-10T01:32:02.699Z,5.81
2019-02-10T01:34:30.671Z,5.75
2019-02-10T01:36:58.536Z,5.85
2019-02-10T01:39:26.335Z,6.00
2019-02-10T01:41:53.951Z,5.87
2019-02-10T01:44:21.833Z,5.76
2019-02-10T01:46:49.702Z,5.78
2019-02-10T01:49:17.316Z,5.66
2019-02-10T01:51:44.924Z,5.80
2019-02-10T01:54:12.546Z,5.77
2019-02-10T01:56:40.453Z,5.82
2019-02-10T01:59:08.069Z,5.95
2019-02-10T02:01:36.004Z,5.90
2019-02-10T02:04:03.952Z,5.82
2019-02-10T02:06:31.817Z,5.82
2019-02-10T02:08:59.793Z,5.87
2019-02-10T02:11:27.657Z,5.85
2019-02-10T02:13:55.258Z,5.64
2019-02-10T02:16:22.879Z,5.74
2019-02-10T02:18:50.847Z,5.62
2019-02-10T02:21:18.720Z,5.64
2019-02-10T02:23:46.320Z,5.46
2019-02-10T02:26:14.252Z,5.52
2019-02-10T02:28:42.111Z,5.39
2019-02-10T02:31:09.983Z,5.36
2019-02-10T02:33:37.876Z,5.25
2019-02-10T02:36:05.812Z,5.12
2019-02-10T02:38:33.431Z,5.15
2019-02-10T02:41:01.347Z,4.93
2019-02-10T02:43:28.960Z,4.83
2019-02-10T02:45:56.587Z,4.68
2019-02-10T02:48:24.432Z,4.83
2019-02-10T02:50:52.411Z,4.86
2019-02-10T02:53:20.398Z,4.99
2019-02-10T02:55:48.002Z,4.78
2019-02-10T02:58:15.903Z,4.58
2019-02-10T03:00:43.777Z,4.77
2019-02-10T03:03:11.383Z,4.57
2019-02-10T03:05:39.317Z,4.54
2019-02-10T03:08:07.285Z,4.59
2019-02-10T03:10:34.889Z,4.41
2019-02-10T03:13:02.498Z,4.37
2019-02-10T03:15:30.116Z,4.28
2019-02-10T03:17:58.020Z,4.10
2019-02-10T03:20:25.639Z,4.12
2019-02-10T03:22:53.243Z,3.97
2019-02-10T03:25:20.866Z,3.80
2019-02-10T03:27:48.477Z,3.77
2019-02-10T03:30:16.440Z,3.71
2019-02-10T03:32:44.331Z,3.65
2019-02-10T03:35:11.944Z,3.55
2019-02-10T03:37:39.848Z,3.87
2019-02-10T03:40:07.802Z,4.15
2019-02-10T03:42:35.739Z,4.17
2019-02-10T03:45:03.364Z,4.42
2019-02-10T03:47:31.311Z,4.44
2019-02-10T03:49:59.169Z,4.36
2019-02-10T03:52:27.168Z,4.86
2019-02-10T03:54:54.777Z,4.86
2019-02-10T03:57:22.400Z,4.63
2019-02-10T03:59:50.330Z,4.64
2019-02-10T04:02:17.965Z,4.52
2019-02-10T04:04:45.858Z,4.40
2019-02-10T04:07:13.744Z,4.14
2019-02-10T04:09:41.698Z,3.93
2019-02-10T04:12:09.674Z,3.76
2019-02-10T04:14:37.286Z,3.86
2019-02-10T04:17:05.213Z,3.73
2019-02-10T04:19:33.086Z,3.67
2019-02-10T04:22:00.704Z,3.56
2019-02-10T04:24:28.600Z,3.53
2019-02-10T04:26:56.566Z,3.63
2019-02-10T04:29:24.179Z,3.45
2019-02-10T04:31:51.794Z,3.40
2019-02-10T04:34:19.758Z,3.31
2019-02-10T04:36:47.732Z,3.19
2019-02-10T04:39:15.342Z,3.25
2019-02-10T04:41:43.254Z,3.28
2019-02-10T04:44:10.869Z,3.42
2019-02-10T04:46:38.784Z,3.62
2019-02-10T04:49:06.401Z,3.71
2019-02-10T04:51:34.028Z,3.72
2019-02-10T04:54:01.877Z,3.80
2019-02-10T04:56:29.746Z,3.89
2019-02-10T04:58:57.351Z,3.87
2019-02-10T05:01:25.281Z,3.98
2019-02-10T05:03:52.886Z,3.97
2019-02-10T05:06:20.805Z,3.95
2019-02-10T05:08:48.678Z,4.18
2019-02-10T05:11:16.665Z,4.27
2019-02-10T05:13:44.303Z,4.11
2019-02-10T05:16:11.894Z,4.11
2019-02-10T05:18:39.831Z,4.41
2019-02-10T05:21:07.802Z,4.41
2019-02-10T05:23:35.418Z,4.65
2019-02-10T05:26:03.332Z,4.65
2019-02-10T05:28:31.219Z,4.72
2019-02-10T05:30:59.164Z,4.75
2019-02-10T05:33:27.030Z,4.74
2019-02-10T05:35:55.033Z,4.77
2019-02-10T05:38:22.634Z,4.87
2019-02-10T05:40:50.243Z,4.71
2019-02-10T05:43:17.857Z,4.77
2019-02-10T05:45:45.464Z,4.69
2019-02-10T05:48:13.421Z,4.71
2019-02-10T05:50:41.401Z,4.76
2019-02-10T05:53:09.367Z,4.82
2019-02-10T05:55:37.328Z,4.86
2019-02-10T05:58:05.296Z,4.89
2019-02-10T06:00:33.171Z,4.89
2019-02-10T06:03:00.792Z,4.98
2019-02-10T06:05:28.397Z,4.96
2019-02-10T06:07:56.358Z,5.07
2019-02-10T06:10:24.288Z,5.05
2019-02-10T06:12:51.861Z,5.04
2019-02-10T06:15:19.755Z,5.08
2019-02-10T06:17:47.372Z,5.11
2019-02-10T06:20:14.987Z,5.10
2019-02-10T06:22:42.946Z,5.22
2019-02-10T06:25:10.569Z,5.22
2019-02-10T06:27:38.180Z,5.18
2019-02-10T06:30:05.784Z,5.39
2019-02-10T06:32:33.696Z,5.22
2019-02-10T06:35:01.582Z,5.18
2019-02-10T06:37:29.195Z,5.22
2019-02-10T06:39:57.093Z,5.31
2019-02-10T06:42:25.069Z,5.32
2019-02-10T06:44:52.683Z,5.38
2019-02-10T06:47:20.595Z,5.39
2019-02-10T06:49:48.209Z,5.41
2019-02-10T06:52:16.120Z,5.46
2019-02-10T06:54:52.928Z,5.52
2019-02-10T06:57:20.558Z,5.58
2019-02-10T07:00:14.033Z,5.60
2019-02-10T07:02:42.013Z,5.58
2019-02-10T07:05:09.627Z,5.55
2019-02-10T07:07:37.528Z,5.61
2019-02-10T07:10:05.497Z,5.62
2019-02-10T07:12:33.113Z,5.62
2019-02-10T07:15:01.029Z,5.63
2019-02-10T07:17:28.898Z,5.66
2019-02-10T07:19:56.506Z,5.71
2019-02-10T07:22:24.126Z,5.80
2019-02-10T07:24:52.091Z,5.72
2019-02-10T07:27:20.058Z,5.89
2019-02-10T07:29:47.664Z,5.84
2019-02-10T07:32:15.588Z,5.97
2019-02-10T07:34:48.275Z,5.97
2019-02-10T07:37:12.871Z,6.04
2019-02-10T07:39:40.506Z,5.99
2019-02-10T07:42:08.385Z,6.06
2019-02-10T07:44:36.257Z,6.14
2019-02-10T07:47:04.256Z,6.20
2019-02-10T07:49:32.199Z,6.22
2019-02-10T07:51:59.827Z,6.16
2019-02-10T07:54:27.436Z,6.15
2019-02-10T07:56:55.043Z,6.11
2019-02-10T07:59:22.947Z,6.22
2019-02-10T08:01:50.913Z,6.26
2019-02-10T08:04:18.779Z,6.32
2019-02-10T08:06:46.754Z,6.48
2019-02-10T08:09:14.364Z,6.68
2019-02-10T08:11:42.279Z,6.68
2019-02-10T08:14:09.901Z,6.78
2019-02-10T08:16:37.807Z,6.91
2019-02-10T08:19:05.696Z,6.94
2019-02-10T08:21:33.643Z,7.04
2019-02-10T08:24:01.528Z,7.01
2019-02-10T08:26:29.132Z,7.01
2019-02-10T08:28:56.751Z,7.06
2019-02-10T08:31:24.709Z,7.04
2019-02-10T08:33:52.674Z,7.18
2019-02-10T08:36:20.673Z,7.11
2019-02-10T08:38:54.452Z,7.08
2019-02-10T08:41:18.220Z,7.17
2019-02-10T08:43:46.110Z,7.21
2019-02-10T08:46:14.068Z,7.28
2019-02-10T08:48:42.135Z,7.26
2019-02-10T08:51:09.741Z,7.20
2019-02-10T08:53:37.365Z,7.24
2019-02-10T08:56:04.968Z,7.31
2019-02-10T08:58:32.886Z,7.32
2019-02-10T09:01:00.754Z,7.40
2019-02-10T09:03:28.615Z,7.40
2019-02-10T09:05:56.488Z,7.47
2019-02-10T09:08:24.474Z,7.46
2019-02-10T09:10:52.085Z,7.52
2019-02-10T09:13:19.984Z,7.56
2019-02-10T09:15:47.856Z,7.53
2019-02-10T09:18:15.820Z,7.57
2019-02-10T09:20:43.438Z,7.61
2019-02-10T09:23:11.349Z,7.58
2019-02-10T09:25:39.216Z,7.69
2019-02-10T09:28:07.109Z,7.66
2019-02-10T09:30:35.058Z,7.75
2019-02-10T09:33:03.027Z,7.78
2019-02-10T09:35:30.634Z,7.87
2019-02-10T09:37:58.573Z,7.87
2019-02-10T09:40:26.523Z,7.94
2019-02-10T09:42:54.491Z,7.87
2019-02-10T09:45:22.358Z,7.97
2019-02-10T09:47:49.979Z,7.99
2019-02-10T09:50:17.593Z,8.08
2019-02-10T09:52:45.561Z,8.07
2019-02-10T09:55:13.424Z,8.07
2019-02-10T09:57:41.035Z,8.06
2019-02-10T10:00:08.950Z,8.12
2019-02-10T10:02:36.814Z,8.09
2019-02-10T10:05:04.435Z,8.14
2019-02-10T10:07:32.351Z,8.13
2019-02-10T10:10:00.325Z,8.10
2019-02-10T10:12:27.937Z,8.12
2019-02-10T10:14:55.849Z,8.13
2019-02-10T10:17:23.730Z,8.18
2019-02-10T10:19:51.698Z,8.18
2019-02-10T10:22:19.291Z,8.21
2019-02-10T10:24:50.576Z,8.17
2019-02-10T10:27:16.644Z,8.30
2019-02-10T10:29:44.603Z,8.32
2019-02-10T10:32:12.211Z,8.50
2019-02-10T10:34:40.115Z,8.46
2019-02-10T10:37:07.725Z,8.62
2019-02-10T10:39:35.648Z,8.59
2019-02-10T10:42:03.622Z,8.61
2019-02-10T10:44:31.258Z,8.60
2019-02-10T10:46:58.869Z,8.65
2019-02-10T10:49:26.829Z,8.71
2019-02-10T10:51:54.779Z,8.64
2019-02-10T10:54:22.786Z,8.66
2019-02-10T10:56:50.843Z,8.62
2019-02-10T10:59:18.539Z,8.61
2019-02-10T11:01:46.268Z,8.56
2019-02-10T11:04:14.357Z,8.46
2019-02-10T11:06:42.412Z,8.48
2019-02-10T11:09:10.002Z,8.42
2019-02-10T11:11:37.924Z,8.40
2019-02-10T11:14:05.894Z,8.38
2019-02-10T11:16:33.757Z,8.42
2019-02-10T11:19:01.729Z,8.37
2019-02-10T11:21:29.598Z,8.31
2019-02-10T11:23:57.463Z,8.34
2019-02-10T11:26:25.332Z,8.30
2019-02-10T11:28:53.213Z,8.27
2019-02-10T11:31:21.165Z,8.31
2019-02-10T11:33:48.785Z,8.25
2019-02-10T11:36:16.396Z,8.31
2019-02-10T11:38:44.356Z,8.27
2019-02-10T11:41:11.975Z,8.23
2019-02-10T11:43:39.587Z,8.30
2019-02-10T11:46:07.443Z,8.31
2019-02-10T11:48:35.416Z,8.25
2019-02-10T11:51:03.385Z,8.25
2019-02-10T11:53:31.275Z,8.30
2019-02-10T11:55:58.888Z,8.17
2019-02-10T11:58:26.784Z,8.23
2019-02-10T12:00:54.403Z,8.21
2019-02-10T12:03:22.313Z,8.19
2019-02-10T12:05:49.930Z,8.18
2019-02-10T12:08:17.844Z,8.26
2019-02-10T12:10:45.820Z,8.26
2019-02-10T12:13:13.800Z,8.24
2019-02-10T12:15:41.759Z,8.22
2019-02-10T12:18:09.721Z,8.22
2019-02-10T12:20:37.693Z,8.26
2019-02-10T12:23:05.664Z,8.22
2019-02-10T12:25:33.289Z,8.23
2019-02-10T12:28:01.186Z,8.33
2019-02-10T12:30:29.163Z,8.24
2019-02-10T12:32:57.026Z,8.35
2019-02-10T12:35:24.892Z,8.31
2019-02-10T12:37:52.500Z,8.37
2019-02-10T12:40:20.430Z,8.42
2019-02-10T12:42:48.299Z,8.48
2019-02-10T12:45:16.265Z,8.51
2019-02-10T12:47:43.871Z,8.53
2019-02-10T12:50:11.790Z,8.60
2019-02-10T12:52:39.395Z,8.59
2019-02-10T12:55:07.321Z,8.61
2019-02-10T12:57:35.186Z,8.66
2019-02-10T13:00:03.157Z,8.70
2019-02-10T13:02:31.022Z,8.72
2019-02-10T13:04:58.908Z,8.78
2019-02-10T13:07:26.518Z,8.83
2019-02-10T13:09:54.135Z,8.85
2019-02-10T13:12:21.744Z,8.84
2019-02-10T13:14:49.363Z,8.82
2019-02-10T13:17:16.975Z,8.88
2019-02-10T13:19:44.591Z,8.91
2019-02-10T13:22:12.529Z,9.07
2019-02-10T13:24:40.502Z,8.95
2019-02-10T13:27:08.430Z,9.00
2019-02-10T13:29:36.051Z,8.88
2019-02-10T13:32:03.662Z,8.96
2019-02-10T13:34:31.562Z,8.85
2019-02-10T13:36:59.430Z,8.92
2019-02-10T13:39:27.392Z,8.84
2019-02-10T13:41:55.263Z,8.76
2019-02-10T13:44:24.064Z,8.77
2019-02-10T13:46:51.916Z,8.75
2019-02-10T13:49:19.784Z,8.86
2019-02-10T13:51:47.755Z,8.85
2019-02-10T13:54:15.732Z,8.80
2019-02-10T13:56:43.352Z,8.85
2019-02-10T13:59:10.958Z,8.86
2019-02-10T14:01:38.627Z,8.95
2019-02-10T14:04:06.183Z,8.84
2019-02-10T14:06:34.139Z,8.83
2019-02-10T14:09:02.009Z,8.85
2019-02-10T14:11:29.619Z,8.85
2019-02-10T14:13:57.547Z,8.94
2019-02-10T14:16:25.162Z,8.82
2019-02-10T14:18:53.085Z,8.69
2019-02-10T14:21:20.690Z,8.86
2019-02-10T14:23:48.302Z,8.80
2019-02-10T14:26:16.261Z,8.77
2019-02-10T14:28:44.229Z,8.78
2019-02-10T14:31:11.841Z,8.83
2019-02-10T14:33:39.774Z,8.82
2019-02-10T14:36:07.724Z,8.91
2019-02-10T14:38:36.723Z,9.02
2019-02-10T14:41:04.307Z,9.03
2019-02-10T14:43:32.247Z,9.00
2019-02-10T14:46:00.220Z,9.08
2019-02-10T14:48:28.213Z,9.00
2019-02-10T14:50:55.833Z,9.02
2019-02-10T14:53:23.732Z,8.90
2019-02-10T14:55:51.702Z,8.82
2019-02-10T14:58:19.551Z,8.79
2019-02-10T15:00:47.429Z,8.84
2019-02-10T15:03:15.288Z,8.86
2019-02-10T15:05:43.156Z,8.95
2019-02-10T15:08:11.127Z,8.90
2019-02-10T15:10:42.005Z,8.88
2019-02-10T15:13:08.396Z,8.85
2019-02-10T15:15:36.013Z,8.88
2019-02-10T15:18:03.929Z,9.08
2019-02-10T15:20:31.895Z,8.96
2019-02-10T15:22:59.499Z,8.90
2019-02-10T15:25:28.179Z,8.94
2019-02-10T15:27:56.215Z,9.21
2019-02-10T15:30:24.212Z,9.64
2019-02-10T15:32:52.155Z,9.84
2019-02-10T15:35:20.125Z,9.93
2019-02-10T15:37:47.992Z,10.12
2019-02-10T15:40:15.604Z,10.07
2019-02-10T15:42:43.525Z,10.09
2019-02-10T15:45:11.495Z,10.16
2019-02-10T15:47:39.133Z,10.28
2019-02-10T15:50:07.021Z,10.11
2019-02-10T15:52:34.996Z,10.16
2019-02-10T15:55:02.965Z,10.40
2019-02-10T15:57:30.928Z,10.36
2019-02-10T15:59:58.539Z,10.20
2019-02-10T16:02:26.462Z,10.26
2019-02-10T16:04:54.430Z,10.25
2019-02-10T16:07:22.407Z,10.35
2019-02-10T16:09:50.269Z,10.31
2019-02-10T16:22:39.838Z,21.06
2019-02-10T16:25:07.615Z,21.30
2019-02-10T16:27:35.285Z,21.57
2019-02-10T16:30:02.941Z,21.87
2019-02-10T16:32:30.606Z,22.13
2019-02-10T16:34:58.275Z,22.48
2019-02-10T16:41:39.723Z,23.56
2019-02-10T16:44:07.509Z,23.42
2019-02-10T16:49:17.532Z,18.74
2019-02-10T16:51:45.312Z,14.70
2019-02-10T16:54:12.967Z,12.86
2019-02-10T16:56:40.616Z,11.95
2019-02-10T16:59:08.265Z,11.26
2019-02-10T17:01:35.915Z,11.01
2019-02-10T17:04:03.642Z,10.85
2019-02-10T17:06:31.297Z,10.60
2019-02-10T17:08:59.036Z,10.59
2019-02-10T17:11:26.693Z,10.38
2019-02-10T17:13:54.353Z,10.37
2019-02-10T17:16:22.010Z,10.26
2019-02-10T17:18:49.676Z,10.17
2019-02-10T17:21:17.325Z,10.29
2019-02-10T17:23:44.978Z,10.32
2019-02-10T17:26:12.646Z,10.34
2019-02-10T17:28:40.354Z,10.20
2019-02-10T17:31:08.017Z,10.27
2019-02-10T17:33:35.754Z,10.28
2019-02-10T17:36:03.411Z,10.19
2019-02-10T17:38:31.064Z,10.15
2019-02-10T17:40:58.713Z,10.27
2019-02-10T17:43:28.173Z,10.27
2019-02-10T17:45:55.728Z,10.34
2019-02-10T17:48:23.376Z,10.30
2019-02-10T17:50:51.039Z,10.37
2019-02-10T17:53:18.704Z,10.38
2019-02-10T17:55:46.358Z,10.46
2019-02-10T17:58:14.012Z,10.30
2019-02-10T18:00:45.293Z,10.22
2019-02-10T18:03:12.956Z,10.31
2019-02-10T18:05:40.617Z,10.30
2019-02-10T18:08:08.268Z,10.19
2019-02-10T18:10:35.969Z,10.18
2019-02-10T18:13:03.653Z,10.14
2019-02-10T18:15:50.513Z,10.09
2019-02-10T18:18:28.461Z,10.16
2019-02-10T18:21:08.707Z,10.17
2019-02-10T18:23:47.131Z,10.07
2019-02-10T18:26:26.052Z,10.09
2019-02-10T18:29:00.256Z,10.03
2019-02-10T18:31:47.821Z,9.99
2019-02-10T18:34:26.413Z,9.92
2019-02-10T18:37:06.335Z,9.98
2019-02-10T18:39:42.637Z,10.00
2019-02-10T18:42:20.957Z,9.93
2019-02-10T18:44:53.307Z,9.90
2019-02-10T18:47:26.266Z,9.78
2019-02-10T18:49:59.257Z,9.70
2019-02-10T18:52:50.925Z,9.69
2019-02-10T18:55:26.174Z,9.62
2019-02-10T18:58:02.111Z,9.67
2019-02-10T19:00:35.103Z,9.60
2019-02-10T19:03:11.881Z,9.39
2019-02-10T19:05:48.237Z,9.53
2019-02-10T19:08:21.094Z,9.55
2019-02-10T19:11:07.803Z,9.48
2019-02-10T19:13:55.518Z,9.51
2019-02-10T19:16:43.052Z,9.40
2019-02-10T19:19:16.168Z,9.44
2019-02-10T19:22:04.781Z,9.59
2019-02-10T19:24:46.361Z,9.65
2019-02-10T19:27:20.858Z,9.48
2019-02-10T19:29:57.423Z,9.52
2019-02-10T19:32:33.789Z,9.49
2019-02-10T19:35:20.490Z,9.30
2019-02-10T19:37:53.473Z,9.32
2019-02-10T19:40:30.761Z,9.32
2019-02-10T19:43:22.778Z,9.37
2019-02-10T19:46:00.186Z,9.34
2019-02-10T19:48:40.320Z,9.25
2019-02-10T19:51:19.476Z,9.27
2019-02-10T19:53:53.909Z,9.15
2019-02-10T19:56:31.901Z,9.02
2019-02-10T19:59:08.073Z,9.07
2019-02-10T20:01:46.179Z,9.06
2019-02-10T20:04:22.641Z,9.27
2019-02-10T20:06:57.186Z,9.27
2019-02-10T20:09:32.722Z,9.21
2019-02-10T20:12:05.544Z,9.28
2019-02-10T20:14:42.377Z,9.35
2019-02-10T20:17:15.579Z,9.38
2019-02-10T20:19:48.637Z,9.27
2019-02-10T20:22:21.953Z,9.22
2019-02-10T20:25:08.649Z,9.19
2019-02-10T20:27:47.181Z,9.29
2019-02-10T20:30:26.721Z,9.25
2019-02-10T20:33:02.372Z,9.20
2019-02-10T20:35:37.197Z,9.03
2019-02-10T20:38:14.589Z,9.09
2019-02-10T20:40:48.509Z,8.95
2019-02-10T20:43:23.342Z,8.86
2019-02-10T20:46:02.370Z,9.00
2019-02-10T20:48:40.069Z,8.81
2019-02-10T20:51:14.165Z,9.09
2019-02-10T20:53:53.608Z,9.09
2019-02-10T20:56:34.841Z,8.99
2019-02-10T20:59:23.505Z,8.96
2019-02-10T21:01:59.615Z,8.98
2019-02-10T21:04:38.027Z,9.09
2019-02-10T21:07:16.238Z,8.95
2019-02-10T21:09:55.461Z,8.97
2019-02-10T21:12:33.978Z,9.02
2019-02-10T21:15:10.657Z,8.86
2019-02-10T21:17:48.777Z,8.98
2019-02-10T21:20:36.422Z,9.04
2019-02-10T21:23:08.874Z,8.94
2019-02-10T21:25:41.862Z,8.96
2019-02-10T21:28:16.079Z,8.84
2019-02-10T21:31:04.777Z,8.93
2019-02-10T21:33:42.017Z,8.80
2019-02-10T21:36:34.660Z,8.91
2019-02-10T21:39:10.325Z,8.83
2019-02-10T21:41:49.049Z,8.74
2019-02-10T21:44:22.023Z,8.74
2019-02-10T22:01:25.217Z,8.30
2019-02-10T22:03:52.861Z,8.24
2019-02-10T22:06:20.510Z,8.14
2019-02-10T22:08:48.239Z,8.28
2019-02-10T22:11:15.887Z,8.28
2019-02-10T22:13:43.529Z,8.27
2019-02-10T22:16:11.178Z,8.31
2019-02-10T22:18:38.825Z,8.27
2019-02-10T22:21:06.467Z,8.17
2019-02-10T22:23:34.125Z,8.12
2019-02-10T22:26:01.764Z,8.20
2019-02-10T22:28:29.409Z,8.19
2019-02-10T22:30:57.048Z,8.13
2019-02-10T22:33:24.710Z,8.08
2019-02-10T22:35:52.352Z,8.13
2019-02-10T22:38:19.998Z,8.15
2019-02-10T22:40:47.641Z,8.10
2019-02-10T22:43:15.278Z,8.05
2019-02-10T22:45:42.925Z,7.98
2019-02-10T22:48:10.565Z,8.01
2019-02-10T22:50:38.210Z,7.99
2019-02-10T22:53:05.863Z,8.02
2019-02-10T22:55:33.509Z,7.85
2019-02-10T22:58:01.150Z,7.86
2019-02-10T23:00:34.105Z,7.83
2019-02-10T23:03:01.749Z,7.78
2019-02-10T23:05:29.404Z,7.75
2019-02-10T23:07:57.054Z,7.72
2019-02-10T23:10:24.685Z,7.74
2019-02-10T23:12:53.730Z,7.61
2019-02-10T23:15:21.657Z,7.59
2019-02-10T23:17:49.323Z,7.63
2019-02-10T23:20:17.013Z,7.61
2019-02-10T23:22:44.650Z,7.55
2019-02-10T23:25:12.296Z,7.52
2019-02-10T23:27:39.927Z,7.44
2019-02-10T23:30:07.571Z,7.44
2019-02-10T23:32:35.211Z,7.39
2019-02-10T23:35:02.853Z,7.50
2019-02-10T23:37:30.497Z,7.39
2019-02-10T23:39:58.141Z,7.33
2019-02-10T23:42:25.785Z,7.36
2019-02-10T23:44:53.425Z,7.39
2019-02-10T23:47:21.117Z,7.37
2019-02-10T23:49:48.774Z,7.38
2019-02-10T23:52:16.416Z,7.40
2019-02-10T23:54:44.059Z,7.42
2019-02-10T23:57:11.713Z,7.36
2019-02-10T23:59:39.362Z,7.39
